createdAt,value
2018-01-24T00:00:13.570Z,2.10
2018-01-24T00:02:42.785Z,2.90
2018-01-24T00:05:11.108Z,2.20
2018-01-24T00:07:39.773Z,1.92
2018-01-24T00:10:08.134Z,2.08
2018-01-24T00:12:36.548Z,1.83
2018-01-24T00:15:04.995Z,1.73
2018-01-24T00:17:34.947Z,2.15
2018-01-24T00:20:03.460Z,2.78
2018-01-24T00:22:31.912Z,1.60
2018-01-24T00:25:00.230Z,3.50
2018-01-24T00:27:28.774Z,1.75
2018-01-24T00:29:57.158Z,1.60
2018-01-24T00:32:25.521Z,2.40
2018-01-24T00:34:53.952Z,2.20
2018-01-24T00:37:22.274Z,2.00
2018-01-24T00:39:50.592Z,1.58
2018-01-24T00:42:18.887Z,2.53
2018-01-24T00:44:47.348Z,2.20
2018-01-24T00:47:15.680Z,2.20
2018-01-24T00:49:44.009Z,2.42
2018-01-24T00:52:13.094Z,2.47
2018-01-24T00:54:41.428Z,2.45
2018-01-24T00:57:09.759Z,2.10
2018-01-24T00:59:38.305Z,2.05
2018-01-24T01:02:06.606Z,2.40
2018-01-24T01:04:35.841Z,3.67
2018-01-24T01:07:04.177Z,2.10
2018-01-24T01:09:32.625Z,1.90
2018-01-24T01:12:01.097Z,2.12
2018-01-24T01:14:29.422Z,2.40
2018-01-24T01:16:57.752Z,2.22
2018-01-24T01:19:26.079Z,2.33
2018-01-24T01:21:54.395Z,1.30
2018-01-24T01:24:22.746Z,2.10
2018-01-24T01:26:51.970Z,2.20
2018-01-24T01:29:20.270Z,1.90
2018-01-24T01:31:48.602Z,2.28
2018-01-24T01:34:17.662Z,1.80
2018-01-24T01:36:45.999Z,2.45
2018-01-24T01:39:14.322Z,1.90
2018-01-24T01:41:42.652Z,1.70
2018-01-24T01:44:10.967Z,2.37
2018-01-24T01:46:39.326Z,2.55
2018-01-24T01:49:08.226Z,2.10
2018-01-24T01:51:36.518Z,1.55
2018-01-24T01:54:04.834Z,2.20
2018-01-24T01:56:33.488Z,1.75
2018-01-24T01:59:02.620Z,3.37
2018-01-24T02:01:30.938Z,1.80
2018-01-24T02:03:59.265Z,2.65
2018-01-24T02:06:27.649Z,2.17
2018-01-24T02:08:55.976Z,1.37
2018-01-24T02:11:24.347Z,1.90
2018-01-24T02:13:52.726Z,2.00
2018-01-24T02:16:21.197Z,2.78
2018-01-24T02:18:49.876Z,2.20
2018-01-24T02:21:18.179Z,2.80
2018-01-24T02:23:46.528Z,2.70
2018-01-24T02:26:14.830Z,1.92
2018-01-24T02:28:43.152Z,2.12
2018-01-24T02:31:11.434Z,2.20
2018-01-24T02:33:39.780Z,1.65
2018-01-24T02:36:08.091Z,1.77
2018-01-24T02:38:54.296Z,2.15
2018-01-24T02:41:22.606Z,2.42
2018-01-24T02:43:51.949Z,1.60
2018-01-24T02:46:20.266Z,2.60
2018-01-24T02:48:48.569Z,2.20
2018-01-24T02:51:17.655Z,1.42
2018-01-24T02:53:46.740Z,1.37
2018-01-24T02:56:15.122Z,1.90
2018-01-24T02:58:43.450Z,2.20
2018-01-24T03:01:11.778Z,2.10
2018-01-24T03:03:40.838Z,2.22
2018-01-24T03:06:09.223Z,1.70
2018-01-24T03:08:37.544Z,1.80
2018-01-24T03:11:05.835Z,2.20
2018-01-24T03:13:34.158Z,2.15
2018-01-24T03:16:02.459Z,1.50
2018-01-24T03:18:31.547Z,2.10
2018-01-24T03:21:00.626Z,1.98
2018-01-24T03:23:28.950Z,1.23
2018-01-24T03:25:57.296Z,1.55
2018-01-24T03:28:26.372Z,1.95
2018-01-24T03:30:54.706Z,1.83
2018-01-24T03:33:23.126Z,1.62
2018-01-24T03:35:51.544Z,2.22
2018-01-24T03:38:20.159Z,1.60
2018-01-24T03:40:48.495Z,2.20
2018-01-24T03:43:16.810Z,2.92
2018-01-24T03:45:45.143Z,1.67
2018-01-24T03:48:14.233Z,1.95
2018-01-24T03:50:43.328Z,1.52
2018-01-24T03:53:12.437Z,1.83
2018-01-24T03:55:40.768Z,1.70
2018-01-24T03:58:09.134Z,1.45
2018-01-24T04:00:37.409Z,1.70
2018-01-24T04:03:05.728Z,1.50
2018-01-24T04:05:35.294Z,2.05
2018-01-24T04:08:03.551Z,1.92
2018-01-24T04:10:31.877Z,1.87
2018-01-24T04:13:00.940Z,1.27
2018-01-24T04:15:29.659Z,1.98
2018-01-24T04:17:58.728Z,2.50
2018-01-24T04:20:27.058Z,2.12
2018-01-24T04:22:55.486Z,1.85
2018-01-24T04:25:23.848Z,1.87
2018-01-24T04:27:52.168Z,1.77
2018-01-24T04:30:20.569Z,1.48
2018-01-24T04:32:48.895Z,1.95
2018-01-24T04:35:17.276Z,1.75
2018-01-24T04:37:45.610Z,1.33
2018-01-24T04:40:14.110Z,1.83
2018-01-24T04:42:42.406Z,1.35
2018-01-24T04:45:10.724Z,2.05
2018-01-24T04:47:39.022Z,1.50
2018-01-24T04:50:07.394Z,1.20
2018-01-24T04:52:35.698Z,1.80
2018-01-24T04:55:04.069Z,1.50
2018-01-24T04:57:32.436Z,1.40
2018-01-24T05:00:01.037Z,1.70
2018-01-24T05:02:29.379Z,1.90
2018-01-24T05:04:58.504Z,2.15
2018-01-24T05:07:26.828Z,1.90
2018-01-24T05:09:55.136Z,2.30
2018-01-24T05:12:23.454Z,2.03
2018-01-24T05:14:52.524Z,2.20
2018-01-24T05:17:20.836Z,2.40
2018-01-24T05:19:49.922Z,1.77
2018-01-24T05:22:19.034Z,1.70
2018-01-24T05:24:47.403Z,1.87
2018-01-24T05:27:15.763Z,2.50
2018-01-24T05:29:44.086Z,2.00
2018-01-24T05:32:12.650Z,1.92
2018-01-24T05:34:41.212Z,1.70
2018-01-24T05:37:09.869Z,2.15
2018-01-24T05:39:38.211Z,1.98
2018-01-24T05:42:06.523Z,2.20
2018-01-24T05:44:34.833Z,1.92
2018-01-24T05:47:03.911Z,2.00
2018-01-24T05:49:32.300Z,1.60
2018-01-24T05:52:00.632Z,2.03
2018-01-24T05:54:29.104Z,2.03
2018-01-24T05:56:57.417Z,1.58
2018-01-24T05:59:26.509Z,2.78
2018-01-24T06:01:54.831Z,2.17
2018-01-24T06:04:23.154Z,2.70
2018-01-24T06:06:51.450Z,1.95
2018-01-24T06:09:20.593Z,1.67
2018-01-24T06:11:48.966Z,2.05
2018-01-24T06:14:17.299Z,2.00
2018-01-24T06:16:46.408Z,2.50
2018-01-24T06:19:14.723Z,2.40
2018-01-24T06:21:43.076Z,2.50
2018-01-24T06:24:11.378Z,2.17
2018-01-24T06:26:40.649Z,2.05
2018-01-24T06:29:08.949Z,2.05
2018-01-24T06:31:37.334Z,2.17
2018-01-24T06:34:05.648Z,2.85
2018-01-24T06:36:34.799Z,2.45
2018-01-24T06:39:03.275Z,2.22
2018-01-24T06:41:31.856Z,2.60
2018-01-24T06:44:00.272Z,2.20
2018-01-24T06:46:28.858Z,1.35
2018-01-24T06:48:57.595Z,2.10
2018-01-24T06:51:26.995Z,2.28
2018-01-24T06:53:55.431Z,2.60
2018-01-24T06:56:24.557Z,2.47
2018-01-24T06:58:52.863Z,2.47
2018-01-24T07:01:21.193Z,2.35
2018-01-24T07:03:49.488Z,3.85
2018-01-24T07:06:17.810Z,3.20
2018-01-24T07:08:46.106Z,3.17
2018-01-24T07:11:15.237Z,2.55
2018-01-24T07:14:01.395Z,2.35
2018-01-24T07:16:30.672Z,2.72
2018-01-24T07:18:58.961Z,2.87
2018-01-24T07:21:27.306Z,2.60
2018-01-24T07:23:55.598Z,2.75
2018-01-24T07:26:23.925Z,2.10
2018-01-24T07:28:52.355Z,2.60
2018-01-24T07:31:20.687Z,3.17
2018-01-24T07:33:49.031Z,2.95
2018-01-24T07:36:18.108Z,3.25
2018-01-24T07:38:46.446Z,3.47
2018-01-24T07:41:15.145Z,3.40
2018-01-24T07:43:43.454Z,4.03
2018-01-24T07:46:12.547Z,4.22
2018-01-24T07:48:41.891Z,2.75
2018-01-24T07:51:11.009Z,4.03
2018-01-24T07:53:39.591Z,3.62
2018-01-24T07:56:08.509Z,3.28
2018-01-24T07:58:37.776Z,3.60
2018-01-24T08:01:06.106Z,3.70
2018-01-24T08:03:35.356Z,3.00
2018-01-24T08:06:03.698Z,3.30
2018-01-24T08:08:32.020Z,2.65
2018-01-24T08:11:01.199Z,2.78
2018-01-24T08:13:29.573Z,2.95
2018-01-24T08:15:57.898Z,2.80
2018-01-24T08:18:27.016Z,1.98
2018-01-24T08:20:55.419Z,1.70
2018-01-24T08:23:23.882Z,1.83
2018-01-24T08:25:52.308Z,1.55
2018-01-24T08:28:21.400Z,1.50
2018-01-24T08:30:50.011Z,1.62
2018-01-24T08:33:18.721Z,1.42
2018-01-24T08:35:47.068Z,1.42
2018-01-24T08:38:16.197Z,1.40
2018-01-24T08:40:44.603Z,1.30
2018-01-24T08:43:12.951Z,1.55
2018-01-24T08:45:41.271Z,2.00
2018-01-24T08:48:09.693Z,1.42
2018-01-24T08:50:38.006Z,1.70
2018-01-24T08:53:06.329Z,1.30
2018-01-24T08:55:35.418Z,1.50
2018-01-24T08:58:04.504Z,1.40
2018-01-24T09:00:33.611Z,1.35
2018-01-24T09:03:02.711Z,1.77
2018-01-24T09:05:31.071Z,1.80
2018-01-24T09:07:59.458Z,1.75
2018-01-24T09:10:27.876Z,1.50
2018-01-24T09:12:56.954Z,1.90
2018-01-24T09:15:25.267Z,1.50
2018-01-24T09:17:53.612Z,1.30
2018-01-24T09:20:21.921Z,1.62
2018-01-24T09:22:50.385Z,2.05
2018-01-24T09:25:18.866Z,2.00
2018-01-24T09:27:47.251Z,1.67
2018-01-24T09:30:15.636Z,1.70
2018-01-24T09:32:44.764Z,1.52
2018-01-24T09:35:13.924Z,2.05
2018-01-24T09:37:42.505Z,1.30
2018-01-24T09:40:10.870Z,1.80
2018-01-24T09:42:39.197Z,1.87
2018-01-24T09:45:08.288Z,2.33
2018-01-24T09:47:37.360Z,2.12
2018-01-24T09:50:06.496Z,1.20
2018-01-24T09:52:34.813Z,1.27
2018-01-24T09:55:03.133Z,1.10
2018-01-24T09:57:32.267Z,1.65
2018-01-24T10:00:00.616Z,1.62
2018-01-24T10:02:28.985Z,1.70
2018-01-24T10:04:58.296Z,1.65
2018-01-24T10:07:26.986Z,1.23
2018-01-24T10:09:55.579Z,1.50
2018-01-24T10:12:24.112Z,1.95
2018-01-24T10:14:53.384Z,2.10
2018-01-24T10:17:22.597Z,1.08
2018-01-24T10:19:51.212Z,0.98
2018-01-24T10:22:20.551Z,1.80
2018-01-24T10:24:49.888Z,1.52
2018-01-24T10:27:19.005Z,1.70
2018-01-24T10:29:48.736Z,1.12
2018-01-24T10:32:18.445Z,0.77
2018-01-24T10:34:47.160Z,0.75
2018-01-24T10:37:15.621Z,1.10
2018-01-24T10:39:44.474Z,1.00
2018-01-24T10:42:13.383Z,0.70
2018-01-24T10:44:41.959Z,0.80
2018-01-24T10:47:10.665Z,0.90
2018-01-24T10:49:39.151Z,0.80
2018-01-24T10:52:07.749Z,0.80
2018-01-24T10:54:36.240Z,0.93
2018-01-24T10:57:04.620Z,0.70
2018-01-24T10:59:34.013Z,0.70
2018-01-24T11:02:02.552Z,0.62
2018-01-24T11:04:31.200Z,0.68
2018-01-24T11:06:59.830Z,1.15
2018-01-24T11:09:28.448Z,0.80
2018-01-24T11:11:57.212Z,0.70
2018-01-24T11:14:25.813Z,0.80
2018-01-24T11:16:55.251Z,0.90
2018-01-24T11:19:23.782Z,0.77
2018-01-24T11:21:52.193Z,0.77
2018-01-24T11:24:21.307Z,0.60
2018-01-24T11:26:50.378Z,0.62
2018-01-24T11:29:19.631Z,0.70
2018-01-24T11:31:48.142Z,0.60
2018-01-24T11:34:16.505Z,0.80
2018-01-24T11:36:45.147Z,0.70
2018-01-24T11:39:14.709Z,0.70
2018-01-24T11:41:43.322Z,0.70
2018-01-24T11:44:11.947Z,0.70
2018-01-24T11:46:41.345Z,0.80
2018-01-24T11:49:09.953Z,0.60
2018-01-24T11:51:39.213Z,0.90
2018-01-24T11:54:08.058Z,0.80
2018-01-24T11:56:37.484Z,0.70
2018-01-24T11:59:07.023Z,0.80
2018-01-24T12:01:36.742Z,0.62
2018-01-24T12:04:06.853Z,0.60
2018-01-24T12:06:35.409Z,0.62
2018-01-24T12:09:05.267Z,0.68
2018-01-24T12:11:33.874Z,0.60
2018-01-24T12:14:03.918Z,1.00
2018-01-24T12:16:32.911Z,0.65
2018-01-24T12:19:01.780Z,0.80
2018-01-24T12:21:31.219Z,0.52
2018-01-24T12:23:59.856Z,0.50
2018-01-24T12:26:28.444Z,0.70
2018-01-24T12:29:02.493Z,0.77
2018-01-24T12:31:31.102Z,0.90
2018-01-24T12:33:59.454Z,0.70
2018-01-24T12:36:28.174Z,0.60
2018-01-24T12:38:56.927Z,0.60
2018-01-24T12:41:26.346Z,0.80
2018-01-24T12:43:54.803Z,0.80
2018-01-24T12:46:23.670Z,0.90
2018-01-24T12:48:52.995Z,0.70
2018-01-24T12:51:21.829Z,0.50
2018-01-24T12:53:50.439Z,0.90
2018-01-24T12:56:18.986Z,0.60
2018-01-24T12:58:47.614Z,0.80
2018-01-24T13:01:16.727Z,0.62
2018-01-24T13:03:45.420Z,0.60
2018-01-24T13:06:13.960Z,0.70
2018-01-24T13:08:42.590Z,0.75
2018-01-24T13:11:11.087Z,0.65
2018-01-24T13:13:39.810Z,0.80
2018-01-24T13:16:08.319Z,0.70
2018-01-24T13:18:37.621Z,0.60
2018-01-24T13:21:06.204Z,0.80
2018-01-24T13:23:34.857Z,0.60
2018-01-24T13:26:04.186Z,0.70
2018-01-24T13:28:32.686Z,0.62
2018-01-24T13:31:02.021Z,0.70
2018-01-24T13:33:31.536Z,0.70
2018-01-24T13:36:00.934Z,0.60
2018-01-24T13:38:30.494Z,0.50
2018-01-24T13:40:59.379Z,0.70
2018-01-24T13:43:28.200Z,0.60
2018-01-24T13:45:57.758Z,0.60
2018-01-24T13:48:26.955Z,0.60
2018-01-24T13:50:55.541Z,0.60
2018-01-24T13:53:24.371Z,0.70
2018-01-24T13:55:56.395Z,0.80
2018-01-24T13:58:25.014Z,0.70
2018-01-24T14:00:53.739Z,0.60
2018-01-24T14:03:22.757Z,0.70
2018-01-24T14:05:51.307Z,0.70
2018-01-24T14:08:21.147Z,0.80
2018-01-24T14:10:50.078Z,0.70
2018-01-24T14:13:19.607Z,0.65
2018-01-24T14:15:48.212Z,1.27
2018-01-24T14:18:16.771Z,1.25
2018-01-24T14:20:45.374Z,1.15
2018-01-24T14:23:13.931Z,1.25
2018-01-24T14:25:43.530Z,0.60
2018-01-24T14:28:12.458Z,0.65
2018-01-24T14:30:40.888Z,1.12
2018-01-24T14:33:09.573Z,0.60
2018-01-24T14:35:38.833Z,0.75
2018-01-24T14:38:08.681Z,0.90
2018-01-24T14:40:38.257Z,0.70
2018-01-24T14:43:08.288Z,0.90
2018-01-24T14:45:36.801Z,0.70
2018-01-24T14:48:05.910Z,0.90
2018-01-24T14:50:34.333Z,0.70
2018-01-24T14:53:02.748Z,0.90
2018-01-24T14:55:31.164Z,0.90
2018-01-24T14:57:59.530Z,1.15
2018-01-24T15:00:27.990Z,1.30
2018-01-24T15:02:57.346Z,1.48
2018-01-24T15:05:25.685Z,1.30
2018-01-24T15:07:54.009Z,1.00
2018-01-24T15:10:22.424Z,1.15
2018-01-24T15:12:51.555Z,2.85
2018-01-24T15:15:20.000Z,1.10
2018-01-24T15:17:48.531Z,0.98
2018-01-24T15:20:17.074Z,1.10
2018-01-24T15:22:46.162Z,1.27
2018-01-24T15:25:14.891Z,1.25
2018-01-24T15:27:43.664Z,1.30
2018-01-24T15:30:13.172Z,1.58
2018-01-24T15:32:43.214Z,1.73
2018-01-24T15:35:12.169Z,1.20
2018-01-24T15:37:41.088Z,1.25
2018-01-24T15:40:13.763Z,1.75
2018-01-24T15:42:44.089Z,1.70
2018-01-24T15:45:14.398Z,1.48
2018-01-24T15:47:50.235Z,1.60
2018-01-24T15:50:19.356Z,1.30
2018-01-24T15:52:48.407Z,1.15
2018-01-24T15:55:17.258Z,1.23
2018-01-24T15:57:46.809Z,1.60
2018-01-24T16:00:15.261Z,1.58
2018-01-24T16:02:44.100Z,1.42
2018-01-24T16:05:12.754Z,1.50
2018-01-24T16:07:41.541Z,1.55
2018-01-24T16:10:10.651Z,1.45
2018-01-24T16:12:40.603Z,1.47
2018-01-24T16:15:09.944Z,1.62
2018-01-24T16:17:40.205Z,1.35
2018-01-24T16:20:14.979Z,1.58
2018-01-24T16:22:44.140Z,1.20
2018-01-24T16:25:15.027Z,0.90
2018-01-24T16:27:44.803Z,1.20
2018-01-24T16:30:13.675Z,0.80
2018-01-24T16:32:43.555Z,1.00
2018-01-24T16:35:12.343Z,1.23
2018-01-24T16:37:41.835Z,1.10
2018-01-24T16:40:10.941Z,1.20
2018-01-24T16:42:39.885Z,1.12
2018-01-24T16:47:45.490Z,1.30
2018-01-24T16:50:14.295Z,1.15
2018-01-24T16:52:43.380Z,1.20
2018-01-24T16:55:12.264Z,1.45
2018-01-24T16:57:40.891Z,1.87
2018-01-24T17:00:09.532Z,1.60
2018-01-24T17:02:38.317Z,1.27
2018-01-24T17:05:07.572Z,1.60
2018-01-24T17:07:37.169Z,1.40
2018-01-24T17:10:06.221Z,1.70
2018-01-24T17:12:35.012Z,1.40
2018-01-24T17:15:03.789Z,1.50
2018-01-24T17:17:33.188Z,1.70
2018-01-24T17:20:01.780Z,1.55
2018-01-24T17:22:30.376Z,2.15
2018-01-24T17:24:58.929Z,2.22
2018-01-24T17:27:27.341Z,1.77
2018-01-24T17:29:55.962Z,2.00
2018-01-24T17:32:24.528Z,2.37
2018-01-24T17:34:53.365Z,3.83
2018-01-24T17:37:21.999Z,4.50
2018-01-24T17:39:51.557Z,4.30
2018-01-24T17:42:21.273Z,4.60
2018-01-24T17:44:50.161Z,3.40
2018-01-24T17:47:18.697Z,2.87
2018-01-24T17:49:48.462Z,2.90
2018-01-24T17:52:16.961Z,1.80
2018-01-24T17:54:46.336Z,1.42
2018-01-24T17:57:15.113Z,1.52
2018-01-24T17:59:43.649Z,1.83
2018-01-24T18:02:12.440Z,2.20
2018-01-24T18:04:41.101Z,2.28
2018-01-24T18:07:10.218Z,1.40
2018-01-24T18:09:39.589Z,2.35
2018-01-24T18:12:08.458Z,1.37
2018-01-24T18:14:37.055Z,1.60
2018-01-24T18:17:06.079Z,1.55
2018-01-24T18:35:56.534Z,3.57
2018-01-24T18:38:26.329Z,2.73
2018-01-24T18:40:55.312Z,2.70
2018-01-24T18:43:24.426Z,2.80
2018-01-24T18:45:54.386Z,1.70
2018-01-24T18:48:23.080Z,1.75
2018-01-24T18:50:51.871Z,1.30
2018-01-24T18:53:20.520Z,1.27
2018-01-24T18:55:49.198Z,1.58
2018-01-24T18:58:18.065Z,1.60
2018-01-24T19:00:47.181Z,1.50
2018-01-24T19:03:16.628Z,1.75
2018-01-24T19:05:45.515Z,1.92
2018-01-24T19:08:14.301Z,2.40
2018-01-24T19:10:42.882Z,1.90
2018-01-24T19:13:11.685Z,1.80
2018-01-24T19:15:40.660Z,2.25
2018-01-24T19:18:09.623Z,2.35
2018-01-24T19:20:38.255Z,2.78
2018-01-24T19:23:07.055Z,2.92
2018-01-24T19:25:35.916Z,3.60
2018-01-24T19:28:04.833Z,2.35
2018-01-24T19:30:33.865Z,1.30
2018-01-24T19:33:02.504Z,1.77
2018-01-24T19:35:31.082Z,2.23
2018-01-24T19:37:59.978Z,2.05
2018-01-24T19:40:28.912Z,2.60
2018-01-24T19:42:57.779Z,2.83
2018-01-24T19:45:27.786Z,2.33
2018-01-24T19:47:56.431Z,2.37
2018-01-24T19:50:25.556Z,2.30
2018-01-24T19:52:54.526Z,1.95
2018-01-24T19:55:23.846Z,2.22
2018-01-24T19:57:52.642Z,2.45
2018-01-24T20:00:21.837Z,2.37
2018-01-24T20:02:50.720Z,2.50
2018-01-24T20:05:19.424Z,1.87
2018-01-24T20:07:48.039Z,2.87
2018-01-24T20:10:16.980Z,1.95
2018-01-24T20:12:47.193Z,3.17
2018-01-24T20:15:16.403Z,2.47
2018-01-24T20:17:46.156Z,2.72
2018-01-24T20:20:14.881Z,3.12
2018-01-24T20:22:43.462Z,2.03
2018-01-24T20:25:12.175Z,2.53
2018-01-24T20:27:41.002Z,2.67
2018-01-24T20:30:10.373Z,3.28
2018-01-24T20:32:39.134Z,2.70
2018-01-24T20:35:08.046Z,3.00
2018-01-24T20:37:36.934Z,3.45
2018-01-24T20:40:05.536Z,3.17
2018-01-24T20:42:34.023Z,3.10
2018-01-24T20:47:38.525Z,3.47
2018-01-24T20:50:07.051Z,2.83
2018-01-24T20:52:36.558Z,3.15
2018-01-24T20:55:05.161Z,4.20
2018-01-24T20:57:34.170Z,3.72
2018-01-24T21:00:04.557Z,3.20
2018-01-24T21:02:33.794Z,3.35
2018-01-24T21:05:02.472Z,3.60
2018-01-24T21:07:31.015Z,2.75
2018-01-24T21:09:59.548Z,3.12
2018-01-24T21:12:28.638Z,3.70
2018-01-24T21:14:57.627Z,2.60
2018-01-24T21:17:27.331Z,3.80
2018-01-24T21:19:55.995Z,3.40
2018-01-24T21:22:24.656Z,4.20
2018-01-24T21:24:54.009Z,3.50
2018-01-24T21:27:24.229Z,4.12
2018-01-24T21:30:10.437Z,4.15
2018-01-24T21:32:56.775Z,3.90
2018-01-24T21:35:44.443Z,3.50
2018-01-24T21:38:13.094Z,3.62
2018-01-24T21:40:42.638Z,3.20
2018-01-24T21:43:13.234Z,3.70
2018-01-24T21:45:43.098Z,3.10
2018-01-24T21:48:12.583Z,3.08
2018-01-24T21:50:41.949Z,2.92
2018-01-24T21:53:10.656Z,3.47
2018-01-24T21:55:39.292Z,3.78
2018-01-24T21:58:08.448Z,3.80
2018-01-24T22:00:36.793Z,3.25
2018-01-24T22:03:06.207Z,3.05
2018-01-24T22:05:34.709Z,3.17
2018-01-24T22:08:03.199Z,3.22
2018-01-24T22:10:31.588Z,3.60
2018-01-24T22:12:59.936Z,3.25
2018-01-24T22:15:28.525Z,3.60
2018-01-24T22:17:56.953Z,3.05
2018-01-24T22:20:26.100Z,2.92
2018-01-24T22:22:54.469Z,3.12
2018-01-24T22:25:22.819Z,3.40
2018-01-24T22:27:51.161Z,3.90
2018-01-24T22:30:19.854Z,3.60
2018-01-24T22:32:48.598Z,3.35
2018-01-24T22:35:16.983Z,3.83
2018-01-24T22:37:45.320Z,3.75
2018-01-24T22:40:14.450Z,4.00
2018-01-24T22:42:42.783Z,3.40
2018-01-24T22:45:12.059Z,4.82
2018-01-24T22:47:41.195Z,3.30
2018-01-24T22:50:09.810Z,3.97
2018-01-24T22:52:38.252Z,4.80
2018-01-24T22:55:06.661Z,3.45
2018-01-24T22:57:34.979Z,4.00
2018-01-24T23:00:04.268Z,4.05
2018-01-24T23:02:32.736Z,3.72
2018-01-24T23:05:02.392Z,4.20
2018-01-24T23:07:31.507Z,4.32
2018-01-24T23:09:59.915Z,3.95
2018-01-24T23:12:28.226Z,3.65
2018-01-24T23:14:57.318Z,3.22
2018-01-24T23:17:26.454Z,4.30
2018-01-24T23:19:54.831Z,3.75
2018-01-24T23:22:23.369Z,3.87
2018-01-24T23:24:52.237Z,3.95
2018-01-24T23:27:20.600Z,3.60
2018-01-24T23:29:49.154Z,4.00
2018-01-24T23:32:17.528Z,3.80
2018-01-24T23:34:46.066Z,4.00
2018-01-24T23:37:14.473Z,4.28
2018-01-24T23:39:42.825Z,4.20
2018-01-24T23:42:11.183Z,3.87
2018-01-24T23:44:39.528Z,4.30
2018-01-24T23:47:08.014Z,3.72
2018-01-24T23:49:36.626Z,3.55
2018-01-24T23:52:04.946Z,3.85
2018-01-24T23:54:33.995Z,3.30
2018-01-24T23:57:02.539Z,4.22
2018-01-24T23:59:31.836Z,3.20
